sensor_id;sensor_type;location;lat;lon;timestamp;temperature;humidity
2867;DHT22;1441;48.886;8.728;2023-04-01T00:00:06;9.80;92.50
2867;DHT22;1441;48.886;8.728;2023-04-01T00:02:32;9.80;92.70
2867;DHT22;1441;48.886;8.728;2023-04-01T00:04:57;9.80;92.30
2867;DHT22;1441;48.886;8.728;2023-04-01T00:07:23;9.80;92.30
2867;DHT22;1441;48.886;8.728;2023-04-01T00:09:49;9.80;92.60
2867;DHT22;1441;48.886;8.728;2023-04-01T00:12:14;9.70;92.50
2867;DHT22;1441;48.886;8.728;2023-04-01T00:14:40;9.70;92.90
2867;DHT22;1441;48.886;8.728;2023-04-01T00:17:05;9.70;92.70
2867;DHT22;1441;48.886;8.728;2023-04-01T00:19:31;9.70;92.70
2867;DHT22;1441;48.886;8.728;2023-04-01T00:21:58;9.70;92.60
2867;DHT22;1441;48.886;8.728;2023-04-01T00:24:23;9.70;92.90
2867;DHT22;1441;48.886;8.728;2023-04-01T00:26:49;9.70;92.80
2867;DHT22;1441;48.886;8.728;2023-04-01T00:29:14;9.70;93.10
2867;DHT22;1441;48.886;8.728;2023-04-01T00:31:40;9.70;92.80
2867;DHT22;1441;48.886;8.728;2023-04-01T00:34:05;9.70;92.50
2867;DHT22;1441;48.886;8.728;2023-04-01T00:36:31;9.70;92.70
2867;DHT22;1441;48.886;8.728;2023-04-01T00:38:57;9.70;92.60
2867;DHT22;1441;48.886;8.728;2023-04-01T00:41:24;9.80;92.50
2867;DHT22;1441;48.886;8.728;2023-04-01T00:43:51;9.80;92.60
2867;DHT22;1441;48.886;8.728;2023-04-01T00:46:18;9.80;92.90
2867;DHT22;1441;48.886;8.728;2023-04-01T00:48:55;9.70;93.90
2867;DHT22;1441;48.886;8.728;2023-04-01T00:51:25;9.70;94.20
2867;DHT22;1441;48.886;8.728;2023-04-01T00:53:54;9.60;94.00
2867;DHT22;1441;48.886;8.728;2023-04-01T00:56:50;9.70;94.20
2867;DHT22;1441;48.886;8.728;2023-04-01T00:59:26;9.60;94.70
2867;DHT22;1441;48.886;8.728;2023-04-01T01:01:52;9.60;95.70
2867;DHT22;1441;48.886;8.728;2023-04-01T01:04:38;9.50;95.80
2867;DHT22;1441;48.886;8.728;2023-04-01T01:17:59;9.60;93.80
2867;DHT22;1441;48.886;8.728;2023-04-01T01:26:04;9.60;93.50
2867;DHT22;1441;48.886;8.728;2023-04-01T01:36:40;9.60;93.20
2867;DHT22;1441;48.886;8.728;2023-04-01T01:39:08;9.60;92.90
2867;DHT22;1441;48.886;8.728;2023-04-01T01:41:35;9.60;92.70
2867;DHT22;1441;48.886;8.728;2023-04-01T01:44:03;9.60;92.20
2867;DHT22;1441;48.886;8.728;2023-04-01T01:46:31;9.70;92.00
2867;DHT22;1441;48.886;8.728;2023-04-01T01:48:57;9.60;92.20
2867;DHT22;1441;48.886;8.728;2023-04-01T01:51:26;9.60;92.40
2867;DHT22;1441;48.886;8.728;2023-04-01T01:53:52;9.60;93.60
2867;DHT22;1441;48.886;8.728;2023-04-01T01:56:22;9.60;92.90
2867;DHT22;1441;48.886;8.728;2023-04-01T01:58:52;9.60;92.90
2867;DHT22;1441;48.886;8.728;2023-04-01T02:01:28;9.50;92.40
2867;DHT22;1441;48.886;8.728;2023-04-01T02:03:55;9.60;92.00
2867;DHT22;1441;48.886;8.728;2023-04-01T02:06:25;9.60;91.50
2867;DHT22;1441;48.886;8.728;2023-04-01T02:09:07;9.60;91.60
2867;DHT22;1441;48.886;8.728;2023-04-01T02:14:13;9.70;91.00
2867;DHT22;1441;48.886;8.728;2023-04-01T02:17:38;9.60;90.80
2867;DHT22;1441;48.886;8.728;2023-04-01T02:19:52;9.60;90.40
2867;DHT22;1441;48.886;8.728;2023-04-01T02:22:23;9.60;91.60
2867;DHT22;1441;48.886;8.728;2023-04-01T02:24:52;9.50;93.10
2867;DHT22;1441;48.886;8.728;2023-04-01T02:27:20;9.40;92.90
2867;DHT22;1441;48.886;8.728;2023-04-01T02:29:46;9.30;93.50
2867;DHT22;1441;48.886;8.728;2023-04-01T02:32:13;9.30;94.60
2867;DHT22;1441;48.886;8.728;2023-04-01T02:34:39;9.30;95.30
2867;DHT22;1441;48.886;8.728;2023-04-01T02:37:06;9.20;95.80
2867;DHT22;1441;48.886;8.728;2023-04-01T02:39:32;9.10;96.70
2867;DHT22;1441;48.886;8.728;2023-04-01T02:41:57;9.10;97.40
2867;DHT22;1441;48.886;8.728;2023-04-01T02:44:23;9.00;98.00
2867;DHT22;1441;48.886;8.728;2023-04-01T02:46:49;9.00;97.80
2867;DHT22;1441;48.886;8.728;2023-04-01T02:49:14;8.90;98.40
2867;DHT22;1441;48.886;8.728;2023-04-01T02:51:40;8.90;98.40
2867;DHT22;1441;48.886;8.728;2023-04-01T02:54:06;8.80;97.90
2867;DHT22;1441;48.886;8.728;2023-04-01T02:56:31;8.70;97.90
2867;DHT22;1441;48.886;8.728;2023-04-01T02:58:57;8.80;97.70
2867;DHT22;1441;48.886;8.728;2023-04-01T03:01:22;8.90;97.20
2867;DHT22;1441;48.886;8.728;2023-04-01T03:03:48;8.80;97.10
2867;DHT22;1441;48.886;8.728;2023-04-01T03:06:15;8.90;96.80
2867;DHT22;1441;48.886;8.728;2023-04-01T03:08:41;8.80;97.10
2867;DHT22;1441;48.886;8.728;2023-04-01T03:11:07;8.90;96.70
2867;DHT22;1441;48.886;8.728;2023-04-01T03:13:32;8.90;96.60
2867;DHT22;1441;48.886;8.728;2023-04-01T03:15:58;8.90;96.90
2867;DHT22;1441;48.886;8.728;2023-04-01T03:18:24;8.90;97.20
2867;DHT22;1441;48.886;8.728;2023-04-01T03:20:49;8.80;97.30
2867;DHT22;1441;48.886;8.728;2023-04-01T03:23:15;8.70;97.90
2867;DHT22;1441;48.886;8.728;2023-04-01T03:25:42;8.70;98.00
2867;DHT22;1441;48.886;8.728;2023-04-01T03:28:08;8.70;97.80
2867;DHT22;1441;48.886;8.728;2023-04-01T03:30:34;8.60;98.20
2867;DHT22;1441;48.886;8.728;2023-04-01T03:33:00;8.70;97.90
2867;DHT22;1441;48.886;8.728;2023-04-01T03:35:26;8.70;97.10
2867;DHT22;1441;48.886;8.728;2023-04-01T03:37:52;8.80;97.20
2867;DHT22;1441;48.886;8.728;2023-04-01T03:40:18;8.70;97.60
2867;DHT22;1441;48.886;8.728;2023-04-01T03:42:44;8.70;97.60
2867;DHT22;1441;48.886;8.728;2023-04-01T03:45:10;8.70;97.30
2867;DHT22;1441;48.886;8.728;2023-04-01T03:47:37;8.80;97.70
2867;DHT22;1441;48.886;8.728;2023-04-01T03:50:04;8.80;97.60
2867;DHT22;1441;48.886;8.728;2023-04-01T03:52:29;8.80;97.30
2867;DHT22;1441;48.886;8.728;2023-04-01T03:54:55;8.80;97.00
2867;DHT22;1441;48.886;8.728;2023-04-01T03:57:21;8.80;96.60
2867;DHT22;1441;48.886;8.728;2023-04-01T03:59:46;8.90;96.00
2867;DHT22;1441;48.886;8.728;2023-04-01T04:02:12;8.90;96.20
2867;DHT22;1441;48.886;8.728;2023-04-01T04:04:37;8.90;95.80
2867;DHT22;1441;48.886;8.728;2023-04-01T04:07:03;8.90;96.50
2867;DHT22;1441;48.886;8.728;2023-04-01T04:09:30;8.90;96.40
2867;DHT22;1441;48.886;8.728;2023-04-01T04:11:56;8.90;96.80
2867;DHT22;1441;48.886;8.728;2023-04-01T04:14:23;8.90;96.30
2867;DHT22;1441;48.886;8.728;2023-04-01T04:16:48;8.90;95.70
2867;DHT22;1441;48.886;8.728;2023-04-01T04:19:14;9.00;95.50
2867;DHT22;1441;48.886;8.728;2023-04-01T04:21:41;8.90;95.40
2867;DHT22;1441;48.886;8.728;2023-04-01T04:24:07;9.00;95.10
2867;DHT22;1441;48.886;8.728;2023-04-01T04:26:33;9.00;94.80
2867;DHT22;1441;48.886;8.728;2023-04-01T04:28:59;9.00;94.80
2867;DHT22;1441;48.886;8.728;2023-04-01T04:31:26;9.00;94.90
2867;DHT22;1441;48.886;8.728;2023-04-01T04:33:52;8.90;95.40
2867;DHT22;1441;48.886;8.728;2023-04-01T04:36:20;8.90;94.80
2867;DHT22;1441;48.886;8.728;2023-04-01T04:38:46;8.90;95.10
2867;DHT22;1441;48.886;8.728;2023-04-01T04:41:17;8.90;94.90
2867;DHT22;1441;48.886;8.728;2023-04-01T04:43:52;8.90;95.60
2867;DHT22;1441;48.886;8.728;2023-04-01T04:46:18;8.90;95.70
2867;DHT22;1441;48.886;8.728;2023-04-01T04:48:44;8.80;95.10
2867;DHT22;1441;48.886;8.728;2023-04-01T04:51:16;8.80;95.00
2867;DHT22;1441;48.886;8.728;2023-04-01T04:53:42;8.80;94.50
2867;DHT22;1441;48.886;8.728;2023-04-01T04:56:07;8.90;94.50
2867;DHT22;1441;48.886;8.728;2023-04-01T04:58:33;8.90;94.50
2867;DHT22;1441;48.886;8.728;2023-04-01T05:01:04;8.80;94.80
2867;DHT22;1441;48.886;8.728;2023-04-01T05:03:30;8.70;95.00
2867;DHT22;1441;48.886;8.728;2023-04-01T05:05:56;8.70;94.60
2867;DHT22;1441;48.886;8.728;2023-04-01T05:08:21;8.70;94.50
2867;DHT22;1441;48.886;8.728;2023-04-01T05:10:47;8.70;94.60
2867;DHT22;1441;48.886;8.728;2023-04-01T05:13:12;8.80;94.50
2867;DHT22;1441;48.886;8.728;2023-04-01T05:15:38;8.90;93.80
2867;DHT22;1441;48.886;8.728;2023-04-01T05:18:04;8.90;94.00
2867;DHT22;1441;48.886;8.728;2023-04-01T05:20:29;8.90;93.80
2867;DHT22;1441;48.886;8.728;2023-04-01T05:22:59;9.00;93.20
2867;DHT22;1441;48.886;8.728;2023-04-01T05:25:25;9.00;93.40
2867;DHT22;1441;48.886;8.728;2023-04-01T05:27:50;9.00;93.30
2867;DHT22;1441;48.886;8.728;2023-04-01T05:30:16;9.00;93.30
2867;DHT22;1441;48.886;8.728;2023-04-01T05:32:41;9.20;92.30
2867;DHT22;1441;48.886;8.728;2023-04-01T05:35:08;9.20;92.50
2867;DHT22;1441;48.886;8.728;2023-04-01T05:37:34;9.20;92.70
2867;DHT22;1441;48.886;8.728;2023-04-01T05:40:00;9.20;92.70
2867;DHT22;1441;48.886;8.728;2023-04-01T05:42:26;9.10;92.70
2867;DHT22;1441;48.886;8.728;2023-04-01T05:44:51;9.20;92.80
2867;DHT22;1441;48.886;8.728;2023-04-01T05:47:17;9.20;92.90
2867;DHT22;1441;48.886;8.728;2023-04-01T05:49:43;9.20;93.80
2867;DHT22;1441;48.886;8.728;2023-04-01T05:52:08;9.20;93.40
2867;DHT22;1441;48.886;8.728;2023-04-01T05:54:34;9.30;93.30
2867;DHT22;1441;48.886;8.728;2023-04-01T05:56:59;9.20;93.60
2867;DHT22;1441;48.886;8.728;2023-04-01T05:59:25;9.20;94.20
2867;DHT22;1441;48.886;8.728;2023-04-01T06:01:51;9.20;94.30
2867;DHT22;1441;48.886;8.728;2023-04-01T06:04:18;9.20;94.90
2867;DHT22;1441;48.886;8.728;2023-04-01T06:06:44;9.20;95.30
2867;DHT22;1441;48.886;8.728;2023-04-01T06:09:18;9.30;95.90
2867;DHT22;1441;48.886;8.728;2023-04-01T06:14:51;9.20;97.00
2867;DHT22;1441;48.886;8.728;2023-04-01T06:20:10;8.90;97.80
2867;DHT22;1441;48.886;8.728;2023-04-01T06:35:50;8.90;99.90
2867;DHT22;1441;48.886;8.728;2023-04-01T06:41:21;8.80;99.90
2867;DHT22;1441;48.886;8.728;2023-04-01T06:44:16;8.90;99.90
2867;DHT22;1441;48.886;8.728;2023-04-01T06:52:44;9.00;99.90
2867;DHT22;1441;48.886;8.728;2023-04-01T06:55:43;8.90;99.90
2867;DHT22;1441;48.886;8.728;2023-04-01T06:58:34;8.90;99.90
2867;DHT22;1441;48.886;8.728;2023-04-01T07:01:07;8.90;99.90
2867;DHT22;1441;48.886;8.728;2023-04-01T07:03:36;9.00;99.90
2867;DHT22;1441;48.886;8.728;2023-04-01T07:06:05;8.90;99.90
2867;DHT22;1441;48.886;8.728;2023-04-01T07:08:35;8.70;99.90
2867;DHT22;1441;48.886;8.728;2023-04-01T07:11:04;8.80;99.90
2867;DHT22;1441;48.886;8.728;2023-04-01T07:13:39;8.70;99.90
2867;DHT22;1441;48.886;8.728;2023-04-01T07:21:40;8.90;99.90
2867;DHT22;1441;48.886;8.728;2023-04-01T07:24:15;9.00;99.90
2867;DHT22;1441;48.886;8.728;2023-04-01T07:26:42;9.00;99.90
2867;DHT22;1441;48.886;8.728;2023-04-01T07:29:13;9.00;99.90
2867;DHT22;1441;48.886;8.728;2023-04-01T07:32:03;9.10;99.90
2867;DHT22;1441;48.886;8.728;2023-04-01T08:02:52;9.10;99.80
2867;DHT22;1441;48.886;8.728;2023-04-01T08:05:26;9.00;99.90
2867;DHT22;1441;48.886;8.728;2023-04-01T08:10:51;9.00;99.90
2867;DHT22;1441;48.886;8.728;2023-04-01T08:16:24;9.00;99.90
2867;DHT22;1441;48.886;8.728;2023-04-01T08:21:28;8.80;99.90
2867;DHT22;1441;48.886;8.728;2023-04-01T08:23:57;8.70;99.90
2867;DHT22;1441;48.886;8.728;2023-04-01T08:26:34;8.70;99.90
2867;DHT22;1441;48.886;8.728;2023-04-01T08:29:14;8.70;99.90
2867;DHT22;1441;48.886;8.728;2023-04-01T08:31:49;8.60;99.90
2867;DHT22;1441;48.886;8.728;2023-04-01T08:34:25;8.60;99.90
2867;DHT22;1441;48.886;8.728;2023-04-01T08:37:11;8.70;99.90
2867;DHT22;1441;48.886;8.728;2023-04-01T08:42:42;8.80;99.90
2867;DHT22;1441;48.886;8.728;2023-04-01T08:45:55;8.90;99.90
2867;DHT22;1441;48.886;8.728;2023-04-01T08:48:36;9.00;99.90
2867;DHT22;1441;48.886;8.728;2023-04-01T08:51:23;9.10;99.90
2867;DHT22;1441;48.886;8.728;2023-04-01T09:18:15;9.90;96.60
2867;DHT22;1441;48.886;8.728;2023-04-01T09:21:18;9.90;96.80
2867;DHT22;1441;48.886;8.728;2023-04-01T09:26:58;10.00;95.70
2867;DHT22;1441;48.886;8.728;2023-04-01T09:32:18;9.90;95.60
2867;DHT22;1441;48.886;8.728;2023-04-01T09:34:53;9.90;95.70
2867;DHT22;1441;48.886;8.728;2023-04-01T09:40:23;10.10;95.60
2867;DHT22;1441;48.886;8.728;2023-04-01T09:43:16;10.40;95.50
2867;DHT22;1441;48.886;8.728;2023-04-01T09:46:18;10.30;94.10
2867;DHT22;1441;48.886;8.728;2023-04-01T09:49:04;10.20;94.50
2867;DHT22;1441;48.886;8.728;2023-04-01T09:51:40;10.30;94.20
2867;DHT22;1441;48.886;8.728;2023-04-01T09:54:15;10.40;93.60
2867;DHT22;1441;48.886;8.728;2023-04-01T09:59:21;10.80;93.50
2867;DHT22;1441;48.886;8.728;2023-04-01T10:07:53;10.60;93.20
2867;DHT22;1441;48.886;8.728;2023-04-01T10:19:07;10.30;93.80
2867;DHT22;1441;48.886;8.728;2023-04-01T10:24:56;10.40;93.30
2867;DHT22;1441;48.886;8.728;2023-04-01T10:42:11;10.60;93.00
2867;DHT22;1441;48.886;8.728;2023-04-01T10:48:04;11.10;92.30
2867;DHT22;1441;48.886;8.728;2023-04-01T10:50:53;11.30;91.80
2867;DHT22;1441;48.886;8.728;2023-04-01T10:53:40;11.40;91.20
2867;DHT22;1441;48.886;8.728;2023-04-01T10:56:47;11.40;90.90
2867;DHT22;1441;48.886;8.728;2023-04-01T11:02:17;11.70;90.70
2867;DHT22;1441;48.886;8.728;2023-04-01T11:07:48;12.10;88.40
2867;DHT22;1441;48.886;8.728;2023-04-01T11:13:08;11.90;88.70
2867;DHT22;1441;48.886;8.728;2023-04-01T11:24:41;12.00;90.40
2867;DHT22;1441;48.886;8.728;2023-04-01T11:32:43;11.10;92.30
2867;DHT22;1441;48.886;8.728;2023-04-01T11:38:18;11.00;92.60
2867;DHT22;1441;48.886;8.728;2023-04-01T11:41:31;11.00;92.60
2867;DHT22;1441;48.886;8.728;2023-04-01T11:44:26;11.10;92.30
2867;DHT22;1441;48.886;8.728;2023-04-01T11:52:32;11.50;92.60
2867;DHT22;1441;48.886;8.728;2023-04-01T11:58:17;11.50;92.30
2867;DHT22;1441;48.886;8.728;2023-04-01T12:06:25;11.40;90.90
2867;DHT22;1441;48.886;8.728;2023-04-01T12:14:23;11.80;90.30
2867;DHT22;1441;48.886;8.728;2023-04-01T12:17:02;12.10;89.00
2867;DHT22;1441;48.886;8.728;2023-04-01T12:19:51;12.10;88.40
2867;DHT22;1441;48.886;8.728;2023-04-01T12:33:41;11.70;91.00
2867;DHT22;1441;48.886;8.728;2023-04-01T12:47:48;11.60;92.30
2867;DHT22;1441;48.886;8.728;2023-04-01T12:53:55;11.40;91.80
2867;DHT22;1441;48.886;8.728;2023-04-01T12:56:02;11.40;92.60
2867;DHT22;1441;48.886;8.728;2023-04-01T13:10:17;11.60;92.30
2867;DHT22;1441;48.886;8.728;2023-04-01T13:20:36;11.40;93.30
2867;DHT22;1441;48.886;8.728;2023-04-01T13:26:24;11.30;94.90
2867;DHT22;1441;48.886;8.728;2023-04-01T13:29:13;11.20;95.10
2867;DHT22;1441;48.886;8.728;2023-04-01T13:31:58;11.10;96.80
2867;DHT22;1441;48.886;8.728;2023-04-01T13:45:21;11.30;95.60
2867;DHT22;1441;48.886;8.728;2023-04-01T13:48:20;11.20;95.30
2867;DHT22;1441;48.886;8.728;2023-04-01T13:51:01;11.00;95.60
2867;DHT22;1441;48.886;8.728;2023-04-01T14:08:20;10.20;99.90
2867;DHT22;1441;48.886;8.728;2023-04-01T14:31:14;10.70;98.30
2867;DHT22;1441;48.886;8.728;2023-04-01T14:36:43;10.60;97.70
2867;DHT22;1441;48.886;8.728;2023-04-01T14:42:37;10.50;98.40
2867;DHT22;1441;48.886;8.728;2023-04-01T14:45:39;10.60;98.10
2867;DHT22;1441;48.886;8.728;2023-04-01T14:48:59;10.70;98.70
2867;DHT22;1441;48.886;8.728;2023-04-01T14:51:39;10.60;98.30
2867;DHT22;1441;48.886;8.728;2023-04-01T14:56:39;10.80;97.90
2867;DHT22;1441;48.886;8.728;2023-04-01T15:02:02;10.70;98.20
2867;DHT22;1441;48.886;8.728;2023-04-01T15:04:42;10.70;98.30
2867;DHT22;1441;48.886;8.728;2023-04-01T15:10:32;10.60;97.60
2867;DHT22;1441;48.886;8.728;2023-04-01T15:13:18;10.70;97.60
2867;DHT22;1441;48.886;8.728;2023-04-01T15:18:25;10.40;97.20
2867;DHT22;1441;48.886;8.728;2023-04-01T15:23:46;10.50;97.20
2867;DHT22;1441;48.886;8.728;2023-04-01T15:42:55;10.60;96.00
2867;DHT22;1441;48.886;8.728;2023-04-01T15:48:06;10.50;96.30
2867;DHT22;1441;48.886;8.728;2023-04-01T15:51:09;10.50;96.10
2867;DHT22;1441;48.886;8.728;2023-04-01T15:56:28;10.60;95.50
2867;DHT22;1441;48.886;8.728;2023-04-01T15:59:20;10.50;94.70
2867;DHT22;1441;48.886;8.728;2023-04-01T16:05:23;10.40;95.90
2867;DHT22;1441;48.886;8.728;2023-04-01T16:11:08;10.40;95.80
2867;DHT22;1441;48.886;8.728;2023-04-01T16:14:11;10.40;95.10
2867;DHT22;1441;48.886;8.728;2023-04-01T16:22:22;10.20;97.60
2867;DHT22;1441;48.886;8.728;2023-04-01T16:24:54;10.10;98.30
2867;DHT22;1441;48.886;8.728;2023-04-01T16:27:49;10.10;98.90
2867;DHT22;1441;48.886;8.728;2023-04-01T16:33:24;10.10;99.30
2867;DHT22;1441;48.886;8.728;2023-04-01T16:36:01;10.00;99.10
2867;DHT22;1441;48.886;8.728;2023-04-01T16:38:38;10.10;99.40
2867;DHT22;1441;48.886;8.728;2023-04-01T16:41:24;10.10;98.10
2867;DHT22;1441;48.886;8.728;2023-04-01T16:44:16;10.20;97.80
2867;DHT22;1441;48.886;8.728;2023-04-01T16:46:44;10.20;98.30
2867;DHT22;1441;48.886;8.728;2023-04-01T16:57:09;10.20;96.90
2867;DHT22;1441;48.886;8.728;2023-04-01T17:02:23;10.20;97.20
2867;DHT22;1441;48.886;8.728;2023-04-01T17:05:07;10.10;97.10
2867;DHT22;1441;48.886;8.728;2023-04-01T17:08:00;10.10;97.40
2867;DHT22;1441;48.886;8.728;2023-04-01T17:24:40;9.60;99.90
2867;DHT22;1441;48.886;8.728;2023-04-01T17:27:42;9.50;99.90
2867;DHT22;1441;48.886;8.728;2023-04-01T17:30:32;9.40;99.90
2867;DHT22;1441;48.886;8.728;2023-04-01T17:38:54;9.00;99.90
2867;DHT22;1441;48.886;8.728;2023-04-01T17:41:42;9.10;99.90
2867;DHT22;1441;48.886;8.728;2023-04-01T17:49:45;9.00;99.90
2867;DHT22;1441;48.886;8.728;2023-04-01T17:52:35;9.00;99.90
2867;DHT22;1441;48.886;8.728;2023-04-01T18:12:34;8.70;99.90
2867;DHT22;1441;48.886;8.728;2023-04-01T18:15:21;8.70;99.90
2867;DHT22;1441;48.886;8.728;2023-04-01T18:18:34;8.60;99.90
2867;DHT22;1441;48.886;8.728;2023-04-01T18:21:16;8.70;99.90
2867;DHT22;1441;48.886;8.728;2023-04-01T18:23:50;8.60;99.90
2867;DHT22;1441;48.886;8.728;2023-04-01T18:26:27;8.60;99.90
2867;DHT22;1441;48.886;8.728;2023-04-01T18:31:42;8.70;99.90
2867;DHT22;1441;48.886;8.728;2023-04-01T18:36:51;8.80;99.90
2867;DHT22;1441;48.886;8.728;2023-04-01T18:39:33;8.80;99.90
2867;DHT22;1441;48.886;8.728;2023-04-01T18:42:19;8.70;99.90
2867;DHT22;1441;48.886;8.728;2023-04-01T18:44:51;8.50;99.90
2867;DHT22;1441;48.886;8.728;2023-04-01T18:52:42;8.30;99.90
2867;DHT22;1441;48.886;8.728;2023-04-01T19:00:17;8.40;99.90
2867;DHT22;1441;48.886;8.728;2023-04-01T19:05:34;8.50;99.90
2867;DHT22;1441;48.886;8.728;2023-04-01T19:08:22;8.50;99.90
2867;DHT22;1441;48.886;8.728;2023-04-01T19:16:46;8.50;99.90
2867;DHT22;1441;48.886;8.728;2023-04-01T19:28:07;8.70;99.90
2867;DHT22;1441;48.886;8.728;2023-04-01T19:33:52;8.60;99.90
2867;DHT22;1441;48.886;8.728;2023-04-01T19:37:00;8.60;99.90
2867;DHT22;1441;48.886;8.728;2023-04-01T19:40:00;8.70;99.90
2867;DHT22;1441;48.886;8.728;2023-04-01T19:42:38;8.70;99.90
2867;DHT22;1441;48.886;8.728;2023-04-01T19:45:41;8.70;99.90
2867;DHT22;1441;48.886;8.728;2023-04-01T19:50:46;8.80;99.90
2867;DHT22;1441;48.886;8.728;2023-04-01T19:56:19;8.80;99.90
2867;DHT22;1441;48.886;8.728;2023-04-01T19:58:56;8.70;99.90
2867;DHT22;1441;48.886;8.728;2023-04-01T20:01:27;8.70;99.90
2867;DHT22;1441;48.886;8.728;2023-04-01T20:04:03;8.70;99.90
2867;DHT22;1441;48.886;8.728;2023-04-01T20:06:55;8.70;99.90
2867;DHT22;1441;48.886;8.728;2023-04-01T20:09:47;8.70;99.90
2867;DHT22;1441;48.886;8.728;2023-04-01T20:12:42;8.70;99.90
2867;DHT22;1441;48.886;8.728;2023-04-01T20:15:39;8.60;99.90
2867;DHT22;1441;48.886;8.728;2023-04-01T20:18:15;8.60;99.90
2867;DHT22;1441;48.886;8.728;2023-04-01T20:20:55;8.50;99.90
2867;DHT22;1441;48.886;8.728;2023-04-01T20:23:34;8.50;99.90
2867;DHT22;1441;48.886;8.728;2023-04-01T20:26:08;8.50;99.90
2867;DHT22;1441;48.886;8.728;2023-04-01T20:31:36;8.50;99.90
2867;DHT22;1441;48.886;8.728;2023-04-01T20:50:00;8.40;99.90
2867;DHT22;1441;48.886;8.728;2023-04-01T20:52:42;8.40;99.90
2867;DHT22;1441;48.886;8.728;2023-04-01T20:58:52;8.30;99.90
2867;DHT22;1441;48.886;8.728;2023-04-01T21:06:41;8.40;99.90
2867;DHT22;1441;48.886;8.728;2023-04-01T21:12:18;8.50;99.90
2867;DHT22;1441;48.886;8.728;2023-04-01T21:15:47;8.60;99.90
2867;DHT22;1441;48.886;8.728;2023-04-01T21:18:03;8.60;99.90
2867;DHT22;1441;48.886;8.728;2023-04-01T21:23:13;8.60;99.90
2867;DHT22;1441;48.886;8.728;2023-04-01T21:26:37;8.60;99.90
2867;DHT22;1441;48.886;8.728;2023-04-01T21:31:40;8.60;99.90
2867;DHT22;1441;48.886;8.728;2023-04-01T22:00:42;8.70;99.90
2867;DHT22;1441;48.886;8.728;2023-04-01T22:03:38;8.70;99.90
2867;DHT22;1441;48.886;8.728;2023-04-01T22:06:22;8.70;99.90
2867;DHT22;1441;48.886;8.728;2023-04-01T22:11:51;8.80;99.90
2867;DHT22;1441;48.886;8.728;2023-04-01T22:15:24;8.80;99.90
2867;DHT22;1441;48.886;8.728;2023-04-01T22:25:40;8.80;99.90
2867;DHT22;1441;48.886;8.728;2023-04-01T22:28:19;8.80;99.90
2867;DHT22;1441;48.886;8.728;2023-04-01T22:30:51;8.80;99.90
2867;DHT22;1441;48.886;8.728;2023-04-01T22:33:57;8.90;99.90
2867;DHT22;1441;48.886;8.728;2023-04-01T22:36:48;8.90;99.90
2867;DHT22;1441;48.886;8.728;2023-04-01T22:45:02;8.80;99.90
2867;DHT22;1441;48.886;8.728;2023-04-01T22:53:04;8.80;99.90
2867;DHT22;1441;48.886;8.728;2023-04-01T22:55:34;8.80;99.90
2867;DHT22;1441;48.886;8.728;2023-04-01T22:58:08;8.70;99.90
2867;DHT22;1441;48.886;8.728;2023-04-01T23:00:49;8.70;99.90
2867;DHT22;1441;48.886;8.728;2023-04-01T23:03:39;8.70;99.90
2867;DHT22;1441;48.886;8.728;2023-04-01T23:06:05;8.70;99.90
2867;DHT22;1441;48.886;8.728;2023-04-01T23:08:56;8.80;99.90
2867;DHT22;1441;48.886;8.728;2023-04-01T23:11:30;8.80;99.90
2867;DHT22;1441;48.886;8.728;2023-04-01T23:16:42;8.80;99.90
2867;DHT22;1441;48.886;8.728;2023-04-01T23:19:20;8.90;99.90
2867;DHT22;1441;48.886;8.728;2023-04-01T23:21:54;8.80;99.90
2867;DHT22;1441;48.886;8.728;2023-04-01T23:24:38;8.90;99.90
2867;DHT22;1441;48.886;8.728;2023-04-01T23:27:30;8.80;99.90
2867;DHT22;1441;48.886;8.728;2023-04-01T23:30:00;8.80;99.90
2867;DHT22;1441;48.886;8.728;2023-04-01T23:32:26;8.80;99.90
2867;DHT22;1441;48.886;8.728;2023-04-01T23:34:55;8.80;99.90
2867;DHT22;1441;48.886;8.728;2023-04-01T23:37:22;8.80;99.90
2867;DHT22;1441;48.886;8.728;2023-04-01T23:39:51;8.70;99.90
2867;DHT22;1441;48.886;8.728;2023-04-01T23:42:38;8.70;99.90
2867;DHT22;1441;48.886;8.728;2023-04-01T23:45:13;8.80;99.90
2867;DHT22;1441;48.886;8.728;2023-04-01T23:47:40;8.80;99.90
2867;DHT22;1441;48.886;8.728;2023-04-01T23:50:24;8.80;99.90
2867;DHT22;1441;48.886;8.728;2023-04-01T23:53:00;8.80;99.90
2867;DHT22;1441;48.886;8.728;2023-04-01T23:55:33;8.90;99.90
2867;DHT22;1441;48.886;8.728;2023-04-01T23:58:23;8.90;99.90
